createdAt,value
2018-03-06T00:00:35.265Z,33.50
2018-03-06T00:03:04.823Z,29.87
2018-03-06T00:05:34.113Z,28.48
2018-03-06T00:08:03.721Z,29.75
2018-03-06T00:10:33.226Z,30.20
2018-03-06T00:13:02.832Z,31.42
2018-03-06T00:15:32.365Z,32.15
2018-03-06T00:18:01.723Z,34.28
2018-03-06T00:20:31.034Z,33.33
2018-03-06T00:23:00.551Z,32.03
2018-03-06T00:25:29.646Z,40.15
2018-03-06T00:27:58.954Z,36.88
2018-03-06T00:30:28.562Z,35.92
2018-03-06T00:32:57.761Z,36.58
2018-03-06T00:35:27.413Z,34.63
2018-03-06T00:37:56.800Z,34.83
2018-03-06T00:40:25.972Z,39.17
2018-03-06T00:42:55.261Z,35.95
2018-03-06T00:45:25.665Z,36.88
2018-03-06T00:47:55.253Z,41.88
2018-03-06T00:50:24.558Z,31.65
2018-03-06T00:52:53.802Z,34.58
2018-03-06T00:55:23.107Z,34.25
2018-03-06T00:57:52.598Z,29.58
2018-03-06T01:00:22.011Z,27.37
2018-03-06T01:02:51.375Z,32.42
2018-03-06T01:05:20.502Z,32.17
2018-03-06T01:07:49.553Z,31.08
2018-03-06T01:10:18.938Z,34.47
2018-03-06T01:12:48.003Z,27.73
2018-03-06T01:15:17.296Z,33.30
2018-03-06T01:17:46.337Z,39.65
2018-03-06T01:20:15.644Z,33.72
2018-03-06T01:22:44.889Z,27.35
2018-03-06T01:25:14.290Z,30.08
2018-03-06T01:27:44.055Z,31.12
2018-03-06T01:30:13.285Z,30.62
2018-03-06T01:32:42.457Z,28.95
2018-03-06T01:35:11.607Z,31.48
2018-03-06T01:37:40.793Z,29.60
2018-03-06T01:40:10.137Z,29.25
2018-03-06T01:42:39.392Z,33.08
2018-03-06T01:45:08.661Z,32.10
2018-03-06T01:47:38.041Z,35.70
2018-03-06T01:50:07.400Z,32.85
2018-03-06T01:52:36.949Z,33.67
2018-03-06T01:55:06.818Z,34.78
2018-03-06T01:57:36.045Z,32.10
2018-03-06T02:00:05.330Z,32.70
2018-03-06T02:02:34.527Z,29.95
2018-03-06T02:05:03.831Z,29.58
2018-03-06T02:07:32.809Z,31.90
2018-03-06T02:10:02.116Z,30.92
2018-03-06T02:12:31.519Z,41.97
2018-03-06T02:15:00.749Z,35.05
2018-03-06T02:17:30.224Z,39.95
2018-03-06T02:19:59.639Z,33.92
2018-03-06T02:22:28.717Z,38.03
2018-03-06T02:24:57.982Z,35.40
2018-03-06T02:27:27.135Z,43.50
2018-03-06T02:29:56.234Z,40.40
2018-03-06T02:32:25.265Z,38.15
2018-03-06T02:34:54.666Z,30.27
2018-03-06T02:37:24.109Z,38.83
2018-03-06T02:39:53.337Z,42.70
2018-03-06T02:42:22.506Z,40.50
2018-03-06T02:44:51.825Z,39.13
2018-03-06T02:47:21.219Z,39.97
2018-03-06T02:49:50.428Z,44.97
2018-03-06T02:52:19.436Z,37.38
2018-03-06T02:54:48.496Z,51.72
2018-03-06T02:57:18.163Z,58.72
2018-03-06T02:59:47.361Z,47.83
2018-03-06T03:02:16.501Z,44.88
2018-03-06T03:04:45.462Z,39.67
2018-03-06T03:07:14.693Z,48.92
2018-03-06T03:09:43.942Z,41.97
2018-03-06T03:12:13.120Z,52.42
2018-03-06T03:14:42.285Z,42.25
2018-03-06T03:17:11.753Z,54.10
2018-03-06T03:19:41.700Z,56.70
2018-03-06T03:22:10.941Z,49.85
2018-03-06T03:24:40.269Z,50.75
2018-03-06T03:27:09.578Z,48.42
2018-03-06T03:29:38.920Z,48.17
2018-03-06T03:32:08.085Z,69.40
2018-03-06T03:34:37.622Z,50.80
2018-03-06T03:37:07.521Z,48.00
2018-03-06T03:39:36.622Z,57.85
2018-03-06T03:42:05.862Z,58.30
2018-03-06T03:44:35.321Z,52.13
2018-03-06T03:47:04.395Z,57.80
2018-03-06T03:49:33.821Z,56.28
2018-03-06T03:52:03.272Z,55.78
2018-03-06T03:54:32.629Z,52.33
2018-03-06T03:57:01.870Z,50.50
2018-03-06T03:59:31.343Z,46.13
2018-03-06T04:02:00.661Z,57.50
2018-03-06T04:04:29.887Z,62.65
2018-03-06T04:06:59.346Z,56.35
2018-03-06T04:09:28.299Z,60.12
2018-03-06T04:11:57.257Z,55.12
2018-03-06T04:14:26.634Z,67.35
2018-03-06T04:16:55.760Z,53.92
2018-03-06T04:19:25.529Z,65.57
2018-03-06T04:21:54.634Z,59.22
2018-03-06T04:24:23.721Z,63.55
2018-03-06T04:26:52.789Z,62.92
2018-03-06T04:29:22.265Z,85.05
2018-03-06T04:31:51.625Z,95.47
2018-03-06T04:34:20.985Z,79.30
2018-03-06T04:36:50.373Z,83.00
2018-03-06T04:39:19.837Z,72.90
2018-03-06T04:41:49.201Z,68.18
2018-03-06T04:44:18.409Z,68.35
2018-03-06T04:46:47.453Z,82.50
2018-03-06T04:49:16.833Z,76.62
2018-03-06T04:51:46.280Z,72.07
2018-03-06T04:54:15.365Z,73.90
2018-03-06T04:56:44.711Z,85.30
2018-03-06T04:59:14.156Z,84.47
2018-03-06T05:01:43.702Z,94.65
2018-03-06T05:04:12.873Z,88.10
2018-03-06T05:06:42.095Z,85.38
2018-03-06T05:09:11.699Z,97.45
2018-03-06T05:11:40.769Z,109.75
2018-03-06T05:14:09.987Z,98.28
2018-03-06T05:16:39.441Z,97.47
2018-03-06T05:19:08.524Z,111.68
2018-03-06T05:21:37.617Z,85.35
2018-03-06T05:24:07.097Z,93.95
2018-03-06T05:26:36.299Z,86.95
2018-03-06T05:29:05.537Z,95.80
2018-03-06T05:31:34.755Z,88.10
2018-03-06T05:34:03.953Z,115.03
2018-03-06T05:36:32.986Z,93.15
2018-03-06T05:39:02.137Z,92.88
2018-03-06T05:41:31.218Z,101.38
2018-03-06T05:44:00.340Z,97.90
2018-03-06T05:46:29.721Z,95.10
2018-03-06T05:48:59.356Z,93.47
2018-03-06T05:51:28.629Z,89.28
2018-03-06T05:53:58.188Z,92.00
2018-03-06T05:56:27.533Z,77.68
2018-03-06T05:58:56.597Z,74.32
2018-03-06T06:01:26.033Z,79.78
2018-03-06T06:03:55.300Z,73.12
2018-03-06T06:06:24.775Z,68.55
2018-03-06T06:08:54.141Z,71.30
2018-03-06T06:11:23.749Z,80.45
2018-03-06T06:13:52.873Z,80.97
2018-03-06T06:16:22.102Z,76.53
2018-03-06T06:18:51.860Z,81.78
2018-03-06T06:21:21.217Z,66.00
2018-03-06T06:23:50.410Z,321.65
2018-03-06T06:26:20.164Z,78.18
2018-03-06T06:28:49.167Z,81.82
2018-03-06T06:31:18.458Z,68.45
2018-03-06T06:33:47.611Z,65.60
2018-03-06T06:36:17.019Z,73.62
2018-03-06T06:38:46.702Z,69.45
2018-03-06T06:41:16.191Z,73.30
2018-03-06T06:43:45.697Z,71.97
2018-03-06T06:46:14.877Z,66.80
2018-03-06T06:48:44.595Z,86.78
2018-03-06T06:51:13.884Z,82.43
2018-03-06T07:08:18.250Z,61.33
2018-03-06T07:10:47.313Z,54.20
2018-03-06T07:13:16.405Z,52.58
2018-03-06T07:15:45.656Z,93.15
2018-03-06T07:18:14.762Z,54.88
2018-03-06T07:20:43.967Z,56.83
2018-03-06T07:23:13.237Z,53.08
2018-03-06T07:25:42.562Z,54.53
2018-03-06T07:28:11.760Z,59.47
2018-03-06T07:30:40.697Z,54.47
2018-03-06T07:33:12.205Z,72.90
2018-03-06T07:35:41.622Z,59.30
2018-03-06T07:38:10.972Z,54.08
2018-03-06T07:40:40.261Z,53.47
2018-03-06T07:43:09.409Z,54.47
2018-03-06T07:45:39.573Z,49.88
2018-03-06T07:48:08.755Z,53.53
2018-03-06T07:50:38.401Z,54.92
2018-03-06T07:53:07.850Z,56.25
2018-03-06T07:55:38.224Z,58.90
2018-03-06T07:58:07.739Z,54.85
2018-03-06T08:00:37.249Z,67.30
2018-03-06T08:03:06.230Z,67.60
2018-03-06T08:05:35.533Z,49.90
2018-03-06T08:08:04.798Z,62.05
2018-03-06T08:10:34.181Z,51.13
2018-03-06T08:13:03.173Z,50.70
2018-03-06T08:15:32.387Z,53.90
2018-03-06T08:18:02.073Z,55.00
2018-03-06T08:20:31.476Z,66.87
2018-03-06T08:23:01.130Z,54.50
2018-03-06T08:25:30.498Z,53.50
2018-03-06T08:27:59.952Z,50.83
2018-03-06T08:30:29.209Z,55.20
2018-03-06T08:32:59.925Z,56.28
2018-03-06T08:35:29.178Z,55.88
2018-03-06T08:37:58.547Z,62.95
2018-03-06T08:40:27.738Z,65.40
2018-03-06T08:42:57.077Z,68.37
2018-03-06T08:45:27.323Z,66.70
2018-03-06T08:47:56.656Z,58.90
2018-03-06T08:50:26.086Z,67.12
2018-03-06T08:52:55.471Z,66.95
2018-03-06T08:55:24.870Z,64.78
2018-03-06T08:57:54.337Z,56.72
2018-03-06T09:00:23.671Z,67.60
2018-03-06T09:02:53.529Z,75.47
2018-03-06T09:05:22.894Z,62.15
2018-03-06T09:07:52.099Z,64.62
2018-03-06T09:10:21.378Z,56.53
2018-03-06T09:12:50.549Z,55.53
2018-03-06T09:15:19.859Z,55.45
2018-03-06T09:17:49.090Z,48.80
2018-03-06T09:20:18.282Z,51.22
2018-03-06T09:22:47.317Z,53.85
2018-03-06T09:25:16.526Z,49.00
2018-03-06T09:27:45.779Z,48.30
2018-03-06T09:30:15.073Z,55.05
2018-03-06T09:32:44.386Z,60.75
2018-03-06T09:35:13.628Z,53.13
2018-03-06T09:37:42.868Z,47.30
2018-03-06T09:40:11.877Z,58.07
2018-03-06T09:42:41.223Z,51.53
2018-03-06T09:45:10.983Z,57.83
2018-03-06T09:47:40.273Z,39.17
2018-03-06T09:50:09.681Z,50.03
2018-03-06T09:52:38.984Z,50.50
2018-03-06T09:55:08.315Z,49.60
2018-03-06T09:57:37.786Z,52.58
2018-03-06T10:00:07.303Z,56.67
2018-03-06T10:02:36.597Z,54.72
2018-03-06T10:18:15.058Z,41.57
2018-03-06T10:20:44.358Z,47.57
2018-03-06T10:23:13.689Z,47.03
2018-03-06T10:25:43.053Z,52.83
2018-03-06T10:28:12.566Z,44.83
2018-03-06T10:30:41.865Z,41.30
2018-03-06T10:33:11.337Z,47.57
2018-03-06T10:35:40.712Z,73.70
2018-03-06T10:38:09.865Z,50.27
2018-03-06T10:40:39.065Z,55.87
2018-03-06T10:43:08.081Z,54.53
2018-03-06T10:45:37.253Z,56.20
2018-03-06T10:48:06.457Z,59.83
2018-03-06T10:50:35.868Z,67.67
2018-03-06T10:53:05.512Z,64.17
2018-03-06T10:55:34.651Z,75.27
2018-03-06T10:58:03.999Z,79.20
2018-03-06T11:00:38.617Z,77.83
2018-03-06T11:03:07.834Z,104.03
2018-03-06T11:05:37.109Z,124.70
2018-03-06T11:08:06.409Z,81.17
2018-03-06T11:10:35.847Z,76.40
2018-03-06T11:13:04.957Z,71.37
2018-03-06T11:15:34.498Z,69.70
2018-03-06T11:18:03.819Z,82.53
2018-03-06T11:20:33.569Z,71.70
2018-03-06T11:23:03.013Z,52.93
2018-03-06T11:25:32.119Z,66.87
2018-03-06T11:28:01.611Z,57.37
2018-03-06T11:30:30.974Z,43.23
2018-03-06T11:33:00.409Z,49.90
2018-03-06T11:35:29.957Z,49.57
2018-03-06T11:37:59.663Z,51.87
2018-03-06T11:40:28.938Z,43.10
2018-03-06T11:42:58.045Z,37.17
2018-03-06T11:45:27.291Z,35.27
2018-03-06T11:47:56.673Z,36.77
2018-03-06T11:50:26.257Z,38.40
2018-03-06T11:52:55.898Z,41.53
2018-03-06T11:55:25.361Z,46.27
2018-03-06T11:57:55.221Z,38.13
2018-03-06T12:00:24.697Z,41.63
2018-03-06T12:02:53.982Z,40.33
2018-03-06T12:05:23.291Z,57.37
2018-03-06T12:07:52.895Z,49.00
2018-03-06T12:10:22.801Z,44.77
2018-03-06T12:12:52.409Z,59.83
2018-03-06T12:15:21.811Z,62.13
2018-03-06T12:17:51.261Z,75.30
2018-03-06T12:20:20.621Z,66.47
2018-03-06T12:22:49.761Z,71.90
2018-03-06T12:25:19.367Z,64.50
2018-03-06T12:27:48.869Z,65.90
2018-03-06T12:30:17.939Z,53.53
2018-03-06T12:32:47.139Z,49.23
2018-03-06T12:35:16.629Z,46.07
2018-03-06T12:37:45.973Z,49.60
2018-03-06T12:40:16.105Z,47.23
2018-03-06T12:42:45.538Z,49.93
2018-03-06T12:45:14.822Z,43.37
2018-03-06T12:47:44.113Z,39.00
2018-03-06T12:50:13.466Z,32.03
2018-03-06T12:52:42.861Z,31.37
2018-03-06T12:55:12.119Z,28.67
2018-03-06T12:57:41.226Z,26.27
2018-03-06T13:00:10.605Z,24.37
2018-03-06T13:02:40.005Z,18.60
2018-03-06T13:05:09.262Z,20.60
2018-03-06T13:07:38.939Z,20.63
2018-03-06T13:10:08.481Z,18.03
2018-03-06T13:12:37.714Z,16.63
2018-03-06T13:15:07.242Z,13.63
2018-03-06T13:17:36.525Z,16.17
2018-03-06T13:20:05.889Z,16.53
2018-03-06T13:22:35.289Z,15.00
2018-03-06T13:25:04.701Z,16.80
2018-03-06T13:27:34.033Z,15.13
2018-03-06T13:30:03.701Z,14.57
2018-03-06T13:32:32.857Z,14.13
2018-03-06T13:35:02.130Z,16.87
2018-03-06T13:37:31.296Z,17.90
2018-03-06T13:40:00.701Z,17.70
2018-03-06T13:42:30.013Z,14.23
2018-03-06T13:44:59.347Z,13.80
2018-03-06T13:47:28.780Z,14.83
2018-03-06T13:49:58.237Z,14.27
2018-03-06T13:52:27.617Z,13.70
2018-03-06T13:54:56.913Z,15.03
2018-03-06T13:57:27.092Z,13.87
2018-03-06T13:59:56.477Z,15.37
2018-03-06T14:02:25.679Z,19.80
2018-03-06T14:04:54.669Z,17.90
2018-03-06T14:07:25.677Z,20.00
2018-03-06T14:09:54.765Z,21.97
2018-03-06T14:12:23.965Z,19.53
2018-03-06T14:14:53.269Z,22.73
2018-03-06T14:17:22.481Z,21.07
2018-03-06T14:19:51.976Z,22.97
2018-03-06T14:22:21.307Z,16.90
2018-03-06T14:24:50.428Z,20.40
2018-03-06T14:27:19.617Z,21.30
2018-03-06T14:29:48.967Z,20.40
2018-03-06T14:32:18.525Z,17.80
2018-03-06T14:34:48.285Z,19.23
2018-03-06T14:37:17.334Z,22.00
2018-03-06T14:39:46.477Z,22.13
2018-03-06T14:42:15.677Z,25.50
2018-03-06T14:44:44.932Z,29.77
2018-03-06T14:47:14.195Z,26.53
2018-03-06T14:49:43.685Z,41.30
2018-03-06T14:52:12.779Z,39.90
2018-03-06T14:54:41.722Z,32.67
2018-03-06T14:57:10.781Z,31.20
2018-03-06T14:59:40.118Z,33.00
2018-03-06T15:02:09.463Z,36.23
2018-03-06T15:04:38.869Z,37.33
2018-03-06T15:07:08.150Z,35.17
2018-03-06T15:09:37.391Z,37.03
2018-03-06T15:12:06.773Z,38.00
2018-03-06T15:14:36.295Z,36.87
2018-03-06T15:17:05.581Z,35.03
2018-03-06T15:19:35.234Z,37.47
2018-03-06T15:22:04.955Z,36.03
2018-03-06T15:24:34.458Z,36.23
2018-03-06T15:27:03.731Z,38.60
2018-03-06T15:29:33.209Z,39.63
2018-03-06T15:32:02.827Z,35.43
2018-03-06T15:34:32.057Z,35.13
2018-03-06T15:37:01.300Z,36.83
2018-03-06T15:39:30.441Z,36.93
2018-03-06T15:41:59.821Z,41.27
2018-03-06T15:44:29.217Z,36.07
2018-03-06T15:46:58.977Z,36.33
2018-03-06T15:49:28.645Z,36.17
2018-03-06T15:51:58.345Z,36.17
2018-03-06T15:54:27.653Z,37.03
2018-03-06T15:56:56.947Z,35.93
2018-03-06T15:59:26.679Z,37.73
2018-03-06T16:01:56.270Z,38.27
2018-03-06T16:04:25.787Z,39.33
2018-03-06T16:06:55.222Z,37.73
2018-03-06T16:09:24.840Z,40.80
2018-03-06T16:11:54.327Z,40.25
2018-03-06T16:14:23.494Z,39.87
2018-03-06T16:16:52.992Z,44.83
2018-03-06T16:19:22.621Z,44.23
2018-03-06T16:21:52.023Z,41.88
2018-03-06T16:24:21.628Z,43.95
2018-03-06T16:26:51.283Z,45.60
2018-03-06T16:29:20.634Z,40.33
2018-03-06T16:31:50.006Z,43.53
2018-03-06T16:34:19.411Z,44.55
2018-03-06T16:36:48.602Z,48.80
2018-03-06T16:39:17.741Z,44.10
2018-03-06T16:41:46.970Z,46.88
2018-03-06T16:44:16.461Z,49.85
2018-03-06T16:46:45.515Z,69.78
2018-03-06T16:49:14.789Z,61.42
2018-03-06T16:51:44.442Z,58.05
2018-03-06T16:54:13.631Z,58.80
2018-03-06T16:56:42.806Z,65.20
2018-03-06T16:59:12.173Z,61.70
2018-03-06T17:01:41.719Z,65.20
2018-03-06T17:04:10.974Z,60.47
2018-03-06T17:06:40.444Z,61.03
2018-03-06T17:09:09.551Z,55.45
2018-03-06T17:11:38.827Z,60.20
2018-03-06T17:14:08.182Z,56.37
2018-03-06T17:16:38.378Z,63.20
2018-03-06T17:19:07.869Z,64.15
2018-03-06T17:21:37.471Z,71.43
2018-03-06T17:24:06.560Z,62.97
2018-03-06T17:26:35.837Z,63.25
2018-03-06T17:29:05.115Z,71.72
2018-03-06T17:31:34.618Z,75.47
2018-03-06T17:34:03.737Z,57.38
2018-03-06T17:36:33.339Z,66.40
2018-03-06T17:39:02.765Z,60.00
2018-03-06T17:41:31.955Z,58.33
2018-03-06T17:44:01.746Z,56.78
2018-03-06T17:46:31.076Z,53.13
2018-03-06T17:49:00.558Z,64.47
2018-03-06T17:51:30.466Z,61.17
2018-03-06T17:54:00.144Z,58.65
2018-03-06T17:56:30.255Z,62.35
2018-03-06T17:58:59.481Z,56.13
2018-03-06T18:01:29.054Z,62.47
2018-03-06T18:03:58.177Z,59.72
2018-03-06T18:06:27.802Z,62.38
2018-03-06T18:08:57.318Z,61.15
2018-03-06T18:11:26.665Z,64.68
2018-03-06T18:13:55.965Z,64.22
2018-03-06T18:16:25.577Z,64.90
2018-03-06T18:18:54.726Z,88.12
2018-03-06T18:21:24.145Z,135.48
2018-03-06T18:23:53.101Z,148.35
2018-03-06T18:26:22.379Z,157.35
2018-03-06T18:28:52.414Z,155.68
2018-03-06T18:31:21.725Z,121.62
2018-03-06T18:33:50.926Z,113.75
2018-03-06T18:36:20.322Z,216.93
2018-03-06T18:38:49.707Z,144.62
2018-03-06T18:41:19.293Z,147.07
2018-03-06T18:43:48.811Z,147.43
2018-03-06T18:46:18.312Z,153.48
2018-03-06T18:48:47.814Z,180.65
2018-03-06T18:51:17.009Z,282.05
2018-03-06T18:53:46.269Z,268.15
2018-03-06T18:56:15.597Z,196.60
2018-03-06T18:58:44.578Z,190.07
2018-03-06T19:04:30.477Z,133.37
2018-03-06T19:07:08.631Z,159.68
2018-03-06T19:09:37.573Z,167.25
2018-03-06T19:12:06.715Z,143.70
2018-03-06T19:14:35.960Z,154.18
2018-03-06T19:17:05.187Z,154.70
2018-03-06T19:19:34.389Z,202.77
2018-03-06T19:22:03.503Z,148.85
2018-03-06T19:24:32.741Z,145.20
2018-03-06T19:27:02.091Z,183.82
2018-03-06T19:29:31.509Z,189.60
2018-03-06T19:32:00.766Z,156.37
2018-03-06T19:34:30.212Z,140.57
2018-03-06T19:36:59.518Z,142.30
2018-03-06T19:39:28.893Z,142.32
2018-03-06T19:41:58.189Z,138.43
2018-03-06T19:44:27.850Z,133.75
2018-03-06T19:46:57.025Z,129.68
2018-03-06T19:49:26.128Z,125.65
2018-03-06T19:51:55.397Z,137.98
2018-03-06T19:54:24.457Z,142.37
2018-03-06T19:56:53.634Z,147.45
2018-03-06T19:59:22.581Z,137.50
2018-03-06T20:01:51.715Z,124.07
2018-03-06T20:04:20.926Z,129.48
2018-03-06T20:06:50.222Z,127.87
2018-03-06T20:09:19.343Z,117.90
2018-03-06T20:11:48.614Z,113.95
2018-03-06T20:14:23.550Z,114.50
2018-03-06T20:16:52.531Z,123.72
2018-03-06T20:19:27.820Z,128.90
2018-03-06T20:21:57.130Z,262.95
2018-03-06T20:24:32.125Z,129.55
2018-03-06T20:27:01.298Z,132.52
2018-03-06T20:29:30.501Z,149.35
2018-03-06T20:32:05.250Z,130.32
2018-03-06T20:34:34.743Z,154.20
2018-03-06T20:37:04.238Z,150.02
2018-03-06T20:39:39.127Z,154.12
2018-03-06T20:42:08.369Z,145.07
2018-03-06T20:44:37.794Z,155.20
2018-03-06T20:47:12.591Z,200.62
2018-03-06T20:49:41.706Z,138.95
2018-03-06T20:52:11.286Z,144.00
2018-03-06T20:54:46.173Z,143.55
2018-03-06T20:57:15.453Z,144.02
2018-03-06T20:59:44.675Z,134.05
2018-03-06T21:02:14.158Z,159.60
2018-03-06T21:04:43.553Z,138.85
2018-03-06T21:07:12.847Z,139.57
2018-03-06T21:09:42.271Z,129.48
2018-03-06T21:12:11.358Z,156.27
2018-03-06T21:14:40.706Z,177.43
2018-03-06T21:17:10.254Z,145.38
2018-03-06T21:19:39.901Z,137.27
2018-03-06T21:22:09.161Z,128.12
2018-03-06T21:24:39.030Z,115.25
2018-03-06T21:27:08.681Z,133.57
2018-03-06T21:29:38.100Z,118.85
2018-03-06T21:32:07.565Z,111.57
2018-03-06T21:34:37.073Z,111.97
2018-03-06T21:37:06.361Z,124.57
2018-03-06T21:39:35.551Z,123.13
2018-03-06T21:42:04.820Z,121.25
2018-03-06T21:44:33.978Z,121.65
2018-03-06T21:47:03.269Z,120.13
2018-03-06T21:49:32.401Z,114.57
2018-03-06T21:52:01.464Z,124.72
2018-03-06T21:54:30.695Z,114.95
2018-03-06T21:56:59.770Z,120.47
2018-03-06T21:59:28.980Z,207.55
2018-03-06T22:01:58.291Z,155.18
2018-03-06T22:04:27.601Z,147.60
2018-03-06T22:06:56.924Z,145.57
2018-03-06T22:09:26.140Z,157.30
2018-03-06T22:11:55.503Z,117.45
2018-03-06T22:14:24.585Z,126.05
2018-03-06T22:16:53.730Z,130.60
2018-03-06T22:19:22.934Z,124.50
2018-03-06T22:21:52.277Z,136.20
2018-03-06T22:24:21.521Z,142.95
2018-03-06T22:26:50.916Z,142.27
2018-03-06T22:29:20.039Z,138.35
2018-03-06T22:31:49.218Z,130.07
2018-03-06T22:34:18.636Z,127.82
2018-03-06T22:36:48.188Z,128.95
2018-03-06T22:39:17.803Z,130.95
2018-03-06T22:41:47.401Z,132.32
2018-03-06T22:44:16.640Z,157.00
2018-03-06T22:46:46.223Z,177.38
2018-03-06T22:49:15.489Z,170.18
2018-03-06T22:51:44.544Z,175.73
2018-03-06T22:54:13.823Z,160.32
2018-03-06T22:56:43.205Z,159.87
2018-03-06T22:59:12.310Z,179.43
2018-03-06T23:01:41.485Z,145.52
2018-03-06T23:04:10.797Z,139.65
2018-03-06T23:06:40.033Z,142.00
2018-03-06T23:09:09.404Z,142.43
2018-03-06T23:11:38.705Z,143.30
2018-03-06T23:14:07.813Z,132.15
2018-03-06T23:16:37.101Z,125.55
2018-03-06T23:19:06.343Z,126.65
2018-03-06T23:21:35.493Z,128.70
2018-03-06T23:24:04.897Z,130.93
2018-03-06T23:26:34.505Z,147.15
2018-03-06T23:29:04.174Z,176.95
2018-03-06T23:31:33.313Z,164.30
2018-03-06T23:34:02.739Z,167.48
2018-03-06T23:36:31.883Z,176.12
2018-03-06T23:39:00.973Z,179.20
2018-03-06T23:41:30.209Z,195.87
2018-03-06T23:43:59.667Z,182.07
2018-03-06T23:46:28.955Z,174.48
2018-03-06T23:48:58.161Z,186.88
2018-03-06T23:51:27.547Z,196.55
2018-03-06T23:53:56.926Z,175.32
2018-03-06T23:56:26.217Z,185.07
2018-03-06T23:58:55.929Z,182.43
